sensor_id;sensor_type;location;lat;lon;timestamp;temperature;humidity
66871;DHT22;53780;44.998;9.926;2023-01-19T00:00:33;6.15;81.93
66871;DHT22;53780;44.998;9.926;2023-01-19T00:03:36;6.18;82.04
66871;DHT22;53780;44.998;9.926;2023-01-19T00:06:40;6.19;81.86
66871;DHT22;53780;44.998;9.926;2023-01-19T00:09:44;6.22;81.76
66871;DHT22;53780;44.998;9.926;2023-01-19T00:12:48;6.25;81.77
66871;DHT22;53780;44.998;9.926;2023-01-19T00:15:51;6.26;81.56
66871;DHT22;53780;44.998;9.926;2023-01-19T00:18:55;6.29;81.87
66871;DHT22;53780;44.998;9.926;2023-01-19T00:21:59;6.26;81.59
66871;DHT22;53780;44.998;9.926;2023-01-19T00:25:03;6.25;81.67
66871;DHT22;53780;44.998;9.926;2023-01-19T00:28:12;6.24;81.73
66871;DHT22;53780;44.998;9.926;2023-01-19T00:31:16;6.22;81.87
66871;DHT22;53780;44.998;9.926;2023-01-19T00:34:22;6.21;81.62
66871;DHT22;53780;44.998;9.926;2023-01-19T00:37:26;6.24;81.61
66871;DHT22;53780;44.998;9.926;2023-01-19T00:40:29;6.30;81.43
66871;DHT22;53780;44.998;9.926;2023-01-19T00:43:33;6.32;81.38
66871;DHT22;53780;44.998;9.926;2023-01-19T00:46:37;6.30;81.44
66871;DHT22;53780;44.998;9.926;2023-01-19T00:49:41;6.29;81.32
66871;DHT22;53780;44.998;9.926;2023-01-19T00:52:45;6.28;81.22
66871;DHT22;53780;44.998;9.926;2023-01-19T00:55:49;6.30;81.28
66871;DHT22;53780;44.998;9.926;2023-01-19T00:58:53;6.32;81.26
66871;DHT22;53780;44.998;9.926;2023-01-19T01:01:56;6.29;81.35
66871;DHT22;53780;44.998;9.926;2023-01-19T01:05:00;6.30;81.21
66871;DHT22;53780;44.998;9.926;2023-01-19T01:08:05;6.29;81.38
66871;DHT22;53780;44.998;9.926;2023-01-19T01:11:09;6.28;81.54
66871;DHT22;53780;44.998;9.926;2023-01-19T01:14:13;6.29;81.38
66871;DHT22;53780;44.998;9.926;2023-01-19T01:17:17;6.28;81.59
66871;DHT22;53780;44.998;9.926;2023-01-19T01:20:27;6.28;81.37
66871;DHT22;53780;44.998;9.926;2023-01-19T01:23:33;6.19;81.16
66871;DHT22;53780;44.998;9.926;2023-01-19T01:26:37;6.18;81.35
66871;DHT22;53780;44.998;9.926;2023-01-19T01:29:41;6.21;81.25
66871;DHT22;53780;44.998;9.926;2023-01-19T01:32:49;6.12;80.99
66871;DHT22;53780;44.998;9.926;2023-01-19T01:35:53;6.09;81.16
66871;DHT22;53780;44.998;9.926;2023-01-19T01:38:57;6.07;80.53
66871;DHT22;53780;44.998;9.926;2023-01-19T01:42:02;6.09;80.67
66871;DHT22;53780;44.998;9.926;2023-01-19T01:48:32;6.05;80.43
66871;DHT22;53780;44.998;9.926;2023-01-19T01:51:47;6.02;79.86
66871;DHT22;53780;44.998;9.926;2023-01-19T01:54:53;6.08;79.98
66871;DHT22;53780;44.998;9.926;2023-01-19T01:58:00;6.04;79.44
66871;DHT22;53780;44.998;9.926;2023-01-19T02:01:06;6.05;79.29
66871;DHT22;53780;44.998;9.926;2023-01-19T02:04:30;5.97;79.81
66871;DHT22;53780;44.998;9.926;2023-01-19T02:07:49;5.90;80.13
66871;DHT22;53780;44.998;9.926;2023-01-19T02:11:12;5.81;79.20
66871;DHT22;53780;44.998;9.926;2023-01-19T02:14:35;5.80;79.28
66871;DHT22;53780;44.998;9.926;2023-01-19T02:17:42;5.78;79.37
66871;DHT22;53780;44.998;9.926;2023-01-19T02:24:05;5.61;79.06
66871;DHT22;53780;44.998;9.926;2023-01-19T02:27:10;5.42;79.50
66871;DHT22;53780;44.998;9.926;2023-01-19T02:30:15;5.51;79.28
66871;DHT22;53780;44.998;9.926;2023-01-19T02:33:20;5.51;79.42
66871;DHT22;53780;44.998;9.926;2023-01-19T02:36:28;5.54;78.50
66871;DHT22;53780;44.998;9.926;2023-01-19T02:39:54;5.53;78.35
66871;DHT22;53780;44.998;9.926;2023-01-19T02:42:59;5.36;78.25
66871;DHT22;53780;44.998;9.926;2023-01-19T02:46:04;5.26;78.72
66871;DHT22;53780;44.998;9.926;2023-01-19T02:49:08;5.29;78.25
66871;DHT22;53780;44.998;9.926;2023-01-19T02:52:16;5.25;78.41
66871;DHT22;53780;44.998;9.926;2023-01-19T02:55:25;5.19;78.25
66871;DHT22;53780;44.998;9.926;2023-01-19T02:58:43;5.15;78.17
66871;DHT22;53780;44.998;9.926;2023-01-19T03:02:09;5.19;78.18
66871;DHT22;53780;44.998;9.926;2023-01-19T03:08:43;4.99;78.90
66871;DHT22;53780;44.998;9.926;2023-01-19T03:11:59;5.01;78.82
66871;DHT22;53780;44.998;9.926;2023-01-19T03:15:37;5.07;78.97
66871;DHT22;53780;44.998;9.926;2023-01-19T03:18:39;5.09;79.11
66871;DHT22;53780;44.998;9.926;2023-01-19T03:21:49;5.09;78.82
66871;DHT22;53780;44.998;9.926;2023-01-19T03:24:58;4.89;78.69
66871;DHT22;53780;44.998;9.926;2023-01-19T03:28:04;4.92;79.05
66871;DHT22;53780;44.998;9.926;2023-01-19T03:31:29;5.01;78.72
66871;DHT22;53780;44.998;9.926;2023-01-19T03:34:34;4.99;78.44
66871;DHT22;53780;44.998;9.926;2023-01-19T03:37:42;4.95;78.61
66871;DHT22;53780;44.998;9.926;2023-01-19T03:40:47;4.91;78.57
66871;DHT22;53780;44.998;9.926;2023-01-19T03:43:54;4.87;78.35
66871;DHT22;53780;44.998;9.926;2023-01-19T03:46:59;4.85;78.27
66871;DHT22;53780;44.998;9.926;2023-01-19T03:50:06;4.83;78.69
66871;DHT22;53780;44.998;9.926;2023-01-19T03:53:13;4.84;78.18
66871;DHT22;53780;44.998;9.926;2023-01-19T03:56:20;4.77;78.19
66871;DHT22;53780;44.998;9.926;2023-01-19T03:59:25;4.77;78.30
66871;DHT22;53780;44.998;9.926;2023-01-19T04:02:28;4.73;78.47
66871;DHT22;53780;44.998;9.926;2023-01-19T04:05:32;4.70;78.30
66871;DHT22;53780;44.998;9.926;2023-01-19T04:08:36;4.68;78.66
66871;DHT22;53780;44.998;9.926;2023-01-19T04:11:39;4.67;78.73
66871;DHT22;53780;44.998;9.926;2023-01-19T04:14:43;4.64;78.68
66871;DHT22;53780;44.998;9.926;2023-01-19T04:17:47;4.61;78.87
66871;DHT22;53780;44.998;9.926;2023-01-19T04:20:51;4.60;78.79
66871;DHT22;53780;44.998;9.926;2023-01-19T04:23:54;4.57;79.13
66871;DHT22;53780;44.998;9.926;2023-01-19T04:26:58;4.53;79.46
66871;DHT22;53780;44.998;9.926;2023-01-19T04:30:03;4.52;79.76
66871;DHT22;53780;44.998;9.926;2023-01-19T04:33:07;4.50;79.59
66871;DHT22;53780;44.998;9.926;2023-01-19T04:36:11;4.49;79.91
66871;DHT22;53780;44.998;9.926;2023-01-19T04:39:15;4.50;79.55
66871;DHT22;53780;44.998;9.926;2023-01-19T04:42:19;4.53;79.35
66871;DHT22;53780;44.998;9.926;2023-01-19T04:45:23;4.53;79.11
66871;DHT22;53780;44.998;9.926;2023-01-19T04:48:26;4.52;79.56
66871;DHT22;53780;44.998;9.926;2023-01-19T04:51:30;4.50;79.66
66871;DHT22;53780;44.998;9.926;2023-01-19T04:54:36;4.46;79.64
66871;DHT22;53780;44.998;9.926;2023-01-19T04:57:40;4.32;80.12
66871;DHT22;53780;44.998;9.926;2023-01-19T05:00:44;4.29;80.52
66871;DHT22;53780;44.998;9.926;2023-01-19T05:03:47;4.42;80.36
66871;DHT22;53780;44.998;9.926;2023-01-19T05:06:51;4.33;80.32
66871;DHT22;53780;44.998;9.926;2023-01-19T05:09:56;4.30;80.52
66871;DHT22;53780;44.998;9.926;2023-01-19T05:13:00;4.23;80.30
66871;DHT22;53780;44.998;9.926;2023-01-19T05:16:05;4.30;80.11
66871;DHT22;53780;44.998;9.926;2023-01-19T05:19:08;4.39;79.73
66871;DHT22;53780;44.998;9.926;2023-01-19T05:22:12;4.40;79.51
66871;DHT22;53780;44.998;9.926;2023-01-19T05:25:17;4.45;79.51
66871;DHT22;53780;44.998;9.926;2023-01-19T05:28:21;4.36;79.36
66871;DHT22;53780;44.998;9.926;2023-01-19T05:31:24;4.39;79.28
66871;DHT22;53780;44.998;9.926;2023-01-19T05:34:28;4.36;79.00
66871;DHT22;53780;44.998;9.926;2023-01-19T05:37:32;4.39;79.11
66871;DHT22;53780;44.998;9.926;2023-01-19T05:40:36;4.26;79.29
66871;DHT22;53780;44.998;9.926;2023-01-19T05:43:39;4.23;79.50
66871;DHT22;53780;44.998;9.926;2023-01-19T05:46:43;4.23;79.41
66871;DHT22;53780;44.998;9.926;2023-01-19T05:49:47;4.08;79.89
66871;DHT22;53780;44.998;9.926;2023-01-19T05:52:50;4.16;79.85
66871;DHT22;53780;44.998;9.926;2023-01-19T05:56:03;4.22;79.59
66871;DHT22;53780;44.998;9.926;2023-01-19T05:59:07;4.25;79.48
66871;DHT22;53780;44.998;9.926;2023-01-19T06:02:11;4.25;79.55
66871;DHT22;53780;44.998;9.926;2023-01-19T06:05:15;4.22;79.80
66871;DHT22;53780;44.998;9.926;2023-01-19T06:08:19;4.20;79.76
66871;DHT22;53780;44.998;9.926;2023-01-19T06:11:23;4.16;79.77
66871;DHT22;53780;44.998;9.926;2023-01-19T06:14:28;4.19;79.85
66871;DHT22;53780;44.998;9.926;2023-01-19T06:17:32;4.06;80.25
66871;DHT22;53780;44.998;9.926;2023-01-19T06:20:36;4.05;80.42
66871;DHT22;53780;44.998;9.926;2023-01-19T06:23:40;4.19;80.17
66871;DHT22;53780;44.998;9.926;2023-01-19T06:26:44;4.19;80.07
66871;DHT22;53780;44.998;9.926;2023-01-19T06:29:47;4.16;80.27
66871;DHT22;53780;44.998;9.926;2023-01-19T06:32:52;3.97;80.81
66871;DHT22;53780;44.998;9.926;2023-01-19T06:35:56;4.03;81.19
66871;DHT22;53780;44.998;9.926;2023-01-19T06:38:59;4.09;80.87
66871;DHT22;53780;44.998;9.926;2023-01-19T06:42:07;4.05;81.00
66871;DHT22;53780;44.998;9.926;2023-01-19T06:45:11;4.15;80.95
66871;DHT22;53780;44.998;9.926;2023-01-19T06:48:15;4.22;80.92
66871;DHT22;53780;44.998;9.926;2023-01-19T06:51:20;4.16;80.75
66871;DHT22;53780;44.998;9.926;2023-01-19T06:54:24;4.26;81.21
66871;DHT22;53780;44.998;9.926;2023-01-19T06:57:28;4.35;80.81
66871;DHT22;53780;44.998;9.926;2023-01-19T07:00:32;4.39;80.20
66871;DHT22;53780;44.998;9.926;2023-01-19T07:03:35;4.32;80.22
66871;DHT22;53780;44.998;9.926;2023-01-19T07:06:41;4.36;80.00
66871;DHT22;53780;44.998;9.926;2023-01-19T07:09:44;4.42;80.05
66871;DHT22;53780;44.998;9.926;2023-01-19T07:12:48;4.36;80.27
66871;DHT22;53780;44.998;9.926;2023-01-19T07:15:52;4.37;80.39
66871;DHT22;53780;44.998;9.926;2023-01-19T07:18:56;4.40;80.48
66871;DHT22;53780;44.998;9.926;2023-01-19T07:22:00;4.47;80.31
66871;DHT22;53780;44.998;9.926;2023-01-19T07:25:05;4.43;80.37
66871;DHT22;53780;44.998;9.926;2023-01-19T07:28:09;4.40;80.56
66871;DHT22;53780;44.998;9.926;2023-01-19T07:31:15;4.43;80.12
66871;DHT22;53780;44.998;9.926;2023-01-19T07:34:21;4.36;80.39
66871;DHT22;53780;44.998;9.926;2023-01-19T07:37:25;4.40;80.38
66871;DHT22;53780;44.998;9.926;2023-01-19T07:40:29;4.42;80.14
66871;DHT22;53780;44.998;9.926;2023-01-19T07:43:33;4.47;80.00
66871;DHT22;53780;44.998;9.926;2023-01-19T07:46:37;4.47;79.80
66871;DHT22;53780;44.998;9.926;2023-01-19T07:49:41;4.49;79.76
66871;DHT22;53780;44.998;9.926;2023-01-19T07:52:45;4.52;79.92
66871;DHT22;53780;44.998;9.926;2023-01-19T07:55:54;4.40;80.33
66871;DHT22;53780;44.998;9.926;2023-01-19T07:58:58;4.39;80.31
66871;DHT22;53780;44.998;9.926;2023-01-19T08:02:02;4.40;79.92
66871;DHT22;53780;44.998;9.926;2023-01-19T08:05:06;4.42;79.87
66871;DHT22;53780;44.998;9.926;2023-01-19T08:08:10;4.45;79.55
66871;DHT22;53780;44.998;9.926;2023-01-19T08:11:15;4.45;79.24
66871;DHT22;53780;44.998;9.926;2023-01-19T08:14:19;4.43;79.04
66871;DHT22;53780;44.998;9.926;2023-01-19T08:17:23;4.43;79.00
66871;DHT22;53780;44.998;9.926;2023-01-19T08:20:28;4.40;79.06
66871;DHT22;53780;44.998;9.926;2023-01-19T08:23:34;4.39;79.04
66871;DHT22;53780;44.998;9.926;2023-01-19T08:26:39;4.37;78.99
66871;DHT22;53780;44.998;9.926;2023-01-19T08:29:43;4.36;79.26
66871;DHT22;53780;44.998;9.926;2023-01-19T08:32:47;4.33;78.86
66871;DHT22;53780;44.998;9.926;2023-01-19T08:35:52;4.32;79.09
66871;DHT22;53780;44.998;9.926;2023-01-19T08:38:56;4.33;78.87
66871;DHT22;53780;44.998;9.926;2023-01-19T08:42:00;4.39;79.11
66871;DHT22;53780;44.998;9.926;2023-01-19T08:45:04;4.36;78.99
66871;DHT22;53780;44.998;9.926;2023-01-19T08:48:08;4.35;79.16
66871;DHT22;53780;44.998;9.926;2023-01-19T08:51:14;4.33;79.17
66871;DHT22;53780;44.998;9.926;2023-01-19T08:54:18;4.35;79.29
66871;DHT22;53780;44.998;9.926;2023-01-19T08:57:26;4.35;79.14
66871;DHT22;53780;44.998;9.926;2023-01-19T09:00:30;4.36;78.90
66871;DHT22;53780;44.998;9.926;2023-01-19T09:03:36;4.35;79.02
66871;DHT22;53780;44.998;9.926;2023-01-19T09:06:39;4.33;79.22
66871;DHT22;53780;44.998;9.926;2023-01-19T09:09:43;4.35;79.23
66871;DHT22;53780;44.998;9.926;2023-01-19T09:12:47;4.39;79.20
66871;DHT22;53780;44.998;9.926;2023-01-19T09:15:52;4.39;79.02
66871;DHT22;53780;44.998;9.926;2023-01-19T09:18:56;4.35;78.99
66871;DHT22;53780;44.998;9.926;2023-01-19T09:22:01;4.36;79.01
66871;DHT22;53780;44.998;9.926;2023-01-19T09:25:06;4.30;79.19
66871;DHT22;53780;44.998;9.926;2023-01-19T09:28:12;4.29;79.19
66871;DHT22;53780;44.998;9.926;2023-01-19T09:31:17;4.29;79.24
66871;DHT22;53780;44.998;9.926;2023-01-19T09:34:20;4.29;78.79
66871;DHT22;53780;44.998;9.926;2023-01-19T09:37:25;4.22;79.36
66871;DHT22;53780;44.998;9.926;2023-01-19T09:40:30;4.13;79.59
66871;DHT22;53780;44.998;9.926;2023-01-19T09:43:41;4.03;80.00
66871;DHT22;53780;44.998;9.926;2023-01-19T09:46:48;4.13;79.86
66871;DHT22;53780;44.998;9.926;2023-01-19T09:49:57;4.13;79.87
66871;DHT22;53780;44.998;9.926;2023-01-19T09:53:10;4.25;79.77
66871;DHT22;53780;44.998;9.926;2023-01-19T09:56:18;4.32;79.87
66871;DHT22;53780;44.998;9.926;2023-01-19T09:59:25;4.37;79.55
66871;DHT22;53780;44.998;9.926;2023-01-19T10:02:35;4.42;79.36
66871;DHT22;53780;44.998;9.926;2023-01-19T10:06:01;4.43;78.90
66871;DHT22;53780;44.998;9.926;2023-01-19T10:12:29;4.40;78.88
66871;DHT22;53780;44.998;9.926;2023-01-19T10:18:51;4.37;79.22
66871;DHT22;53780;44.998;9.926;2023-01-19T10:21:59;4.23;79.68
66871;DHT22;53780;44.998;9.926;2023-01-19T10:25:14;4.29;79.81
66871;DHT22;53780;44.998;9.926;2023-01-19T10:28:22;4.37;79.48
66871;DHT22;53780;44.998;9.926;2023-01-19T10:31:28;4.36;79.58
66871;DHT22;53780;44.998;9.926;2023-01-19T10:34:32;4.35;79.69
66871;DHT22;53780;44.998;9.926;2023-01-19T10:37:36;4.37;79.65
66871;DHT22;53780;44.998;9.926;2023-01-19T10:40:58;4.39;79.68
66871;DHT22;53780;44.998;9.926;2023-01-19T10:44:04;4.40;79.71
66871;DHT22;53780;44.998;9.926;2023-01-19T10:47:15;4.42;79.73
66871;DHT22;53780;44.998;9.926;2023-01-19T10:50:28;4.39;79.91
66871;DHT22;53780;44.998;9.926;2023-01-19T10:53:33;4.37;80.01
66871;DHT22;53780;44.998;9.926;2023-01-19T10:56:37;4.37;79.83
66871;DHT22;53780;44.998;9.926;2023-01-19T11:02:48;4.45;80.06
66871;DHT22;53780;44.998;9.926;2023-01-19T11:06:19;4.52;80.09
66871;DHT22;53780;44.998;9.926;2023-01-19T11:09:24;4.53;79.77
66871;DHT22;53780;44.998;9.926;2023-01-19T11:12:27;4.50;79.77
66871;DHT22;53780;44.998;9.926;2023-01-19T11:18:39;4.54;79.96
66871;DHT22;53780;44.998;9.926;2023-01-19T11:21:43;4.57;79.79
66871;DHT22;53780;44.998;9.926;2023-01-19T11:24:48;4.60;79.87
66871;DHT22;53780;44.998;9.926;2023-01-19T11:27:52;4.54;79.88
66871;DHT22;53780;44.998;9.926;2023-01-19T11:30:59;4.53;80.10
66871;DHT22;53780;44.998;9.926;2023-01-19T11:34:19;4.56;79.96
66871;DHT22;53780;44.998;9.926;2023-01-19T11:37:28;4.58;79.81
66871;DHT22;53780;44.998;9.926;2023-01-19T11:40:33;4.57;80.01
66871;DHT22;53780;44.998;9.926;2023-01-19T11:43:37;4.60;79.97
66871;DHT22;53780;44.998;9.926;2023-01-19T11:46:46;4.60;80.09
66871;DHT22;53780;44.998;9.926;2023-01-19T11:50:05;4.60;79.81
66871;DHT22;53780;44.998;9.926;2023-01-19T11:53:22;4.64;79.94
66871;DHT22;53780;44.998;9.926;2023-01-19T11:56:28;4.63;79.97
66871;DHT22;53780;44.998;9.926;2023-01-19T11:59:32;4.61;79.73
66871;DHT22;53780;44.998;9.926;2023-01-19T12:02:44;4.61;80.23
66871;DHT22;53780;44.998;9.926;2023-01-19T12:05:51;4.63;79.95
66871;DHT22;53780;44.998;9.926;2023-01-19T12:09:04;4.67;80.18
66871;DHT22;53780;44.998;9.926;2023-01-19T12:12:29;4.68;80.03
66871;DHT22;53780;44.998;9.926;2023-01-19T12:15:41;4.63;80.06
66871;DHT22;53780;44.998;9.926;2023-01-19T12:19:12;4.63;79.76
66871;DHT22;53780;44.998;9.926;2023-01-19T12:22:19;4.66;79.81
66871;DHT22;53780;44.998;9.926;2023-01-19T12:25:44;4.61;79.86
66871;DHT22;53780;44.998;9.926;2023-01-19T12:28:51;4.64;79.89
66871;DHT22;53780;44.998;9.926;2023-01-19T12:35:54;4.66;79.76
66871;DHT22;53780;44.998;9.926;2023-01-19T12:39:19;4.63;79.62
66871;DHT22;53780;44.998;9.926;2023-01-19T12:42:23;4.56;79.37
66871;DHT22;53780;44.998;9.926;2023-01-19T12:45:37;4.53;79.45
66871;DHT22;53780;44.998;9.926;2023-01-19T12:48:43;4.56;79.66
66871;DHT22;53780;44.998;9.926;2023-01-19T12:51:48;4.58;79.29
66871;DHT22;53780;44.998;9.926;2023-01-19T12:55:00;4.60;79.31
66871;DHT22;53780;44.998;9.926;2023-01-19T12:58:26;4.61;79.08
66871;DHT22;53780;44.998;9.926;2023-01-19T13:01:29;4.64;79.22
66871;DHT22;53780;44.998;9.926;2023-01-19T13:04:33;4.64;79.17
66871;DHT22;53780;44.998;9.926;2023-01-19T13:11:15;4.57;78.77
66871;DHT22;53780;44.998;9.926;2023-01-19T13:14:36;4.64;79.12
66871;DHT22;53780;44.998;9.926;2023-01-19T13:17:52;4.64;79.21
66871;DHT22;53780;44.998;9.926;2023-01-19T13:21:03;4.68;79.19
66871;DHT22;53780;44.998;9.926;2023-01-19T13:24:15;4.71;78.82
66871;DHT22;53780;44.998;9.926;2023-01-19T13:27:20;4.74;79.21
66871;DHT22;53780;44.998;9.926;2023-01-19T13:30:26;4.71;78.84
66871;DHT22;53780;44.998;9.926;2023-01-19T13:34:02;4.68;78.79
66871;DHT22;53780;44.998;9.926;2023-01-19T13:37:15;4.73;79.11
66871;DHT22;53780;44.998;9.926;2023-01-19T13:40:23;4.70;78.69
66871;DHT22;53780;44.998;9.926;2023-01-19T13:43:31;4.71;78.98
66871;DHT22;53780;44.998;9.926;2023-01-19T13:46:38;4.75;78.67
66871;DHT22;53780;44.998;9.926;2023-01-19T13:49:44;4.75;78.22
66871;DHT22;53780;44.998;9.926;2023-01-19T13:52:49;4.67;78.31
66871;DHT22;53780;44.998;9.926;2023-01-19T13:56:14;4.64;78.62
66871;DHT22;53780;44.998;9.926;2023-01-19T13:59:19;4.63;78.50
66871;DHT22;53780;44.998;9.926;2023-01-19T14:02:23;4.60;78.53
66871;DHT22;53780;44.998;9.926;2023-01-19T14:08:31;4.54;78.77
66871;DHT22;53780;44.998;9.926;2023-01-19T14:11:36;4.57;78.63
66871;DHT22;53780;44.998;9.926;2023-01-19T14:14:42;4.52;78.72
66871;DHT22;53780;44.998;9.926;2023-01-19T14:18:07;4.50;79.01
66871;DHT22;53780;44.998;9.926;2023-01-19T14:21:13;4.50;78.85
66871;DHT22;53780;44.998;9.926;2023-01-19T14:24:18;4.50;78.88
66871;DHT22;53780;44.998;9.926;2023-01-19T14:27:23;4.49;78.97
66871;DHT22;53780;44.998;9.926;2023-01-19T14:30:27;4.47;78.84
66871;DHT22;53780;44.998;9.926;2023-01-19T14:33:35;4.49;79.18
66871;DHT22;53780;44.998;9.926;2023-01-19T14:36:49;4.45;79.21
66871;DHT22;53780;44.998;9.926;2023-01-19T14:40:01;4.43;79.20
66871;DHT22;53780;44.998;9.926;2023-01-19T14:43:11;4.45;79.15
66871;DHT22;53780;44.998;9.926;2023-01-19T14:46:17;4.50;78.89
66871;DHT22;53780;44.998;9.926;2023-01-19T14:49:40;4.50;79.15
66871;DHT22;53780;44.998;9.926;2023-01-19T14:52:58;4.43;78.99
66871;DHT22;53780;44.998;9.926;2023-01-19T14:56:04;4.42;79.23
66871;DHT22;53780;44.998;9.926;2023-01-19T14:59:09;4.40;79.26
66871;DHT22;53780;44.998;9.926;2023-01-19T15:02:14;4.40;79.48
66871;DHT22;53780;44.998;9.926;2023-01-19T15:05:18;4.42;79.42
66871;DHT22;53780;44.998;9.926;2023-01-19T15:08:27;4.45;79.56
66871;DHT22;53780;44.998;9.926;2023-01-19T15:11:33;4.40;79.35
66871;DHT22;53780;44.998;9.926;2023-01-19T15:14:37;4.40;79.50
66871;DHT22;53780;44.998;9.926;2023-01-19T15:17:41;4.37;79.61
66871;DHT22;53780;44.998;9.926;2023-01-19T15:20:48;4.39;79.83
66871;DHT22;53780;44.998;9.926;2023-01-19T15:23:52;4.42;79.81
66871;DHT22;53780;44.998;9.926;2023-01-19T15:26:57;4.43;79.83
66871;DHT22;53780;44.998;9.926;2023-01-19T15:30:15;4.42;79.76
66871;DHT22;53780;44.998;9.926;2023-01-19T15:33:21;4.40;79.83
66871;DHT22;53780;44.998;9.926;2023-01-19T15:36:25;4.39;80.09
66871;DHT22;53780;44.998;9.926;2023-01-19T15:39:29;4.36;80.12
66871;DHT22;53780;44.998;9.926;2023-01-19T15:42:33;4.32;80.13
66871;DHT22;53780;44.998;9.926;2023-01-19T15:48:47;4.37;80.32
66871;DHT22;53780;44.998;9.926;2023-01-19T15:51:51;4.42;80.15
66871;DHT22;53780;44.998;9.926;2023-01-19T15:54:55;4.40;79.96
66871;DHT22;53780;44.998;9.926;2023-01-19T15:57:59;4.40;79.94
66871;DHT22;53780;44.998;9.926;2023-01-19T16:01:05;4.39;80.30
66871;DHT22;53780;44.998;9.926;2023-01-19T16:04:09;4.42;80.22
66871;DHT22;53780;44.998;9.926;2023-01-19T16:07:14;4.45;80.15
66871;DHT22;53780;44.998;9.926;2023-01-19T16:10:18;4.40;80.34
66871;DHT22;53780;44.998;9.926;2023-01-19T16:13:22;4.45;80.44
66871;DHT22;53780;44.998;9.926;2023-01-19T16:16:27;4.39;80.47
66871;DHT22;53780;44.998;9.926;2023-01-19T16:19:31;4.39;80.58
66871;DHT22;53780;44.998;9.926;2023-01-19T16:22:36;4.40;80.55
66871;DHT22;53780;44.998;9.926;2023-01-19T16:25:40;4.39;80.52
66871;DHT22;53780;44.998;9.926;2023-01-19T16:28:45;4.39;80.52
66871;DHT22;53780;44.998;9.926;2023-01-19T16:31:49;4.39;80.61
66871;DHT22;53780;44.998;9.926;2023-01-19T16:34:53;4.36;80.71
66871;DHT22;53780;44.998;9.926;2023-01-19T16:37:57;4.36;80.70
66871;DHT22;53780;44.998;9.926;2023-01-19T16:41:01;4.37;80.74
66871;DHT22;53780;44.998;9.926;2023-01-19T16:44:05;4.37;80.71
66871;DHT22;53780;44.998;9.926;2023-01-19T16:47:10;4.40;80.79
66871;DHT22;53780;44.998;9.926;2023-01-19T16:50:14;4.39;80.67
66871;DHT22;53780;44.998;9.926;2023-01-19T16:53:18;4.42;80.77
66871;DHT22;53780;44.998;9.926;2023-01-19T16:56:22;4.42;80.79
66871;DHT22;53780;44.998;9.926;2023-01-19T16:59:26;4.37;80.79
66871;DHT22;53780;44.998;9.926;2023-01-19T17:02:32;4.36;80.82
66871;DHT22;53780;44.998;9.926;2023-01-19T17:05:36;4.35;80.41
66871;DHT22;53780;44.998;9.926;2023-01-19T17:08:41;4.25;80.29
66871;DHT22;53780;44.998;9.926;2023-01-19T17:11:45;4.22;80.02
66871;DHT22;53780;44.998;9.926;2023-01-19T17:14:50;4.22;79.76
66871;DHT22;53780;44.998;9.926;2023-01-19T17:17:53;4.20;79.73
66871;DHT22;53780;44.998;9.926;2023-01-19T17:21:02;4.20;79.53
66871;DHT22;53780;44.998;9.926;2023-01-19T17:24:06;4.20;79.61
66871;DHT22;53780;44.998;9.926;2023-01-19T17:27:10;4.16;79.65
66871;DHT22;53780;44.998;9.926;2023-01-19T17:30:14;4.16;79.70
66871;DHT22;53780;44.998;9.926;2023-01-19T17:33:19;4.15;79.83
66871;DHT22;53780;44.998;9.926;2023-01-19T17:36:25;4.16;79.72
66871;DHT22;53780;44.998;9.926;2023-01-19T17:39:30;4.15;79.78
66871;DHT22;53780;44.998;9.926;2023-01-19T17:42:38;4.15;79.74
66871;DHT22;53780;44.998;9.926;2023-01-19T17:45:42;4.18;79.69
66871;DHT22;53780;44.998;9.926;2023-01-19T17:48:56;4.12;79.83
66871;DHT22;53780;44.998;9.926;2023-01-19T17:52:00;4.09;79.86
66871;DHT22;53780;44.998;9.926;2023-01-19T17:55:05;4.08;80.01
66871;DHT22;53780;44.998;9.926;2023-01-19T17:58:09;4.05;80.23
66871;DHT22;53780;44.998;9.926;2023-01-19T18:01:39;4.08;80.19
66871;DHT22;53780;44.998;9.926;2023-01-19T18:04:44;4.06;80.17
66871;DHT22;53780;44.998;9.926;2023-01-19T18:07:48;4.06;80.22
66871;DHT22;53780;44.998;9.926;2023-01-19T18:10:56;4.03;80.35
66871;DHT22;53780;44.998;9.926;2023-01-19T18:14:00;4.05;80.40
66871;DHT22;53780;44.998;9.926;2023-01-19T18:17:05;4.08;80.54
66871;DHT22;53780;44.998;9.926;2023-01-19T18:20:09;4.02;80.53
66871;DHT22;53780;44.998;9.926;2023-01-19T18:23:13;4.06;80.44
66871;DHT22;53780;44.998;9.926;2023-01-19T18:26:20;4.06;80.69
66871;DHT22;53780;44.998;9.926;2023-01-19T18:29:24;4.06;80.57
66871;DHT22;53780;44.998;9.926;2023-01-19T18:32:28;4.10;80.45
66871;DHT22;53780;44.998;9.926;2023-01-19T18:35:32;4.09;80.34
66871;DHT22;53780;44.998;9.926;2023-01-19T18:38:37;4.06;80.47
66871;DHT22;53780;44.998;9.926;2023-01-19T18:41:41;4.09;80.58
66871;DHT22;53780;44.998;9.926;2023-01-19T18:44:45;4.08;80.53
66871;DHT22;53780;44.998;9.926;2023-01-19T18:47:49;4.10;80.62
66871;DHT22;53780;44.998;9.926;2023-01-19T18:50:53;4.12;80.69
66871;DHT22;53780;44.998;9.926;2023-01-19T18:53:57;4.06;80.53
66871;DHT22;53780;44.998;9.926;2023-01-19T18:57:01;4.09;80.76
66871;DHT22;53780;44.998;9.926;2023-01-19T19:00:06;4.09;80.65
66871;DHT22;53780;44.998;9.926;2023-01-19T19:03:10;4.12;80.70
66871;DHT22;53780;44.998;9.926;2023-01-19T19:06:14;4.12;80.50
66871;DHT22;53780;44.998;9.926;2023-01-19T19:09:19;4.10;80.65
66871;DHT22;53780;44.998;9.926;2023-01-19T19:12:23;4.13;80.78
66871;DHT22;53780;44.998;9.926;2023-01-19T19:15:27;4.13;81.05
66871;DHT22;53780;44.998;9.926;2023-01-19T19:18:36;4.12;81.20
66871;DHT22;53780;44.998;9.926;2023-01-19T19:21:41;4.16;81.05
66871;DHT22;53780;44.998;9.926;2023-01-19T19:24:45;4.19;80.85
66871;DHT22;53780;44.998;9.926;2023-01-19T19:27:50;4.16;80.93
66871;DHT22;53780;44.998;9.926;2023-01-19T19:34:10;4.16;80.75
66871;DHT22;53780;44.998;9.926;2023-01-19T19:37:15;4.13;80.84
66871;DHT22;53780;44.998;9.926;2023-01-19T19:40:19;4.15;81.16
66871;DHT22;53780;44.998;9.926;2023-01-19T19:43:23;4.20;81.14
66871;DHT22;53780;44.998;9.926;2023-01-19T19:46:27;4.16;81.29
66871;DHT22;53780;44.998;9.926;2023-01-19T19:49:32;4.25;81.20
66871;DHT22;53780;44.998;9.926;2023-01-19T19:52:39;4.26;80.88
66871;DHT22;53780;44.998;9.926;2023-01-19T19:55:45;4.26;80.94
66871;DHT22;53780;44.998;9.926;2023-01-19T19:58:57;4.25;80.90
66871;DHT22;53780;44.998;9.926;2023-01-19T20:02:02;4.30;80.92
66871;DHT22;53780;44.998;9.926;2023-01-19T20:05:08;4.26;80.93
66871;DHT22;53780;44.998;9.926;2023-01-19T20:08:12;4.28;81.09
66871;DHT22;53780;44.998;9.926;2023-01-19T20:11:20;4.32;81.16
66871;DHT22;53780;44.998;9.926;2023-01-19T20:14:24;4.30;81.07
66871;DHT22;53780;44.998;9.926;2023-01-19T20:17:28;4.29;81.01
66871;DHT22;53780;44.998;9.926;2023-01-19T20:20:33;4.25;81.07
66871;DHT22;53780;44.998;9.926;2023-01-19T20:23:37;4.32;81.15
66871;DHT22;53780;44.998;9.926;2023-01-19T20:26:43;4.30;81.27
66871;DHT22;53780;44.998;9.926;2023-01-19T20:29:50;4.33;81.05
66871;DHT22;53780;44.998;9.926;2023-01-19T20:33:00;4.33;81.00
66871;DHT22;53780;44.998;9.926;2023-01-19T20:36:05;4.35;81.08